Latest Weather Observations for Mildura

IDN60801

Issued at 10:03 am EST Saturday 2 July 2016 (issued every 30 minutes, with the page automatically refreshed every 10 minutes)

About weather observations | Map of weather stations | Latest weather observations for NSW | Other Formats
Station Details ID: 076031 Name: MILDURA AIRPORT Lat: -34.24 Lon: 142.09 Height: 50.0 m
Data from the previous 72 hours. | See also: Recent months at Mildura
Date/Time
EST
Temp
°C
App
Temp
°C
Dew
Point
°C
Rel
Hum
%
Delta-T
°C
Wind Press
QNH
hPa
Press
MSL
hPa
Rain since
9am
mm
Dir  Spd
km/h
Gust
km/h
Spd
kts
Gust
kts
02/10:00am 12.0 8.8 8.5 79 1.7 WNW 15 20 8 11 1030.5 1030.6 0.0
02/09:30am 11.3 8.9 8.7 84 1.3 WNW 11 17 6 9 1030.1 1030.2 0.0
02/09:00am 10.5 8.2 8.9 90 0.8 WNW 11 13 6 7 1029.9 1030.0 0.0
02/08:30am 9.6 7.2 8.7 94 0.4 NW 11 15 6 8 1029.6 1029.7 0.0
02/08:00am 8.5 5.9 7.9 96 0.3 WNW 11 15 6 8 1029.4 1029.5 0.0
02/07:30am 7.9 5.2 7.3 96 0.3 WNW 11 15 6 8 1029.2 1029.3 0.0
02/07:00am 7.9 5.5 7.1 95 0.4 W 9 11 5 6 1028.7 1028.8 0.0
02/06:30am 8.2 5.9 7.6 96 0.3 W 9 11 5 6 1028.5 1028.6 0.0
02/06:00am 7.8 5.4 7.1 95 0.3 W 9 13 5 7 1028.1 1028.2 0.0
02/05:30am 7.6 5.1 6.5 93 0.5 WNW 9 11 5 6 1027.8 1027.9 0.0
02/05:00am 8.6 6.3 7.4 92 0.6 WNW 9 13 5 7 1027.6 1027.7 0.0
02/04:30am 9.0 6.7 7.6 91 0.7 W 9 11 5 6 1027.7 1027.8 0.0
02/04:00am 9.2 7.2 7.3 88 0.9 W 7 9 4 5 1027.7 1027.8 0.0
02/03:30am 10.2 8.0 7.8 85 1.2 WNW 9 13 5 7 1027.7 1027.8 0.0
02/03:00am 10.8 8.7 8.2 84 1.3 W 9 11 5 6 1027.9 1028.0 0.0
02/02:30am 10.8 8.7 8.4 85 1.2 WNW 9 13 5 7 1028.0 1028.1 0.0
02/02:00am 10.9 8.8 8.3 84 1.3 W 9 13 5 7 1028.1 1028.2 0.0
02/01:30am 10.9 8.8 8.3 84 1.3 W 9 13 5 7 1028.1 1028.2 0.0
02/01:00am 10.7 8.9 8.1 84 1.3 WNW 7 9 4 5 1028.0 1028.1 0.0
02/12:30am 10.9 8.7 8.0 82 1.4 WNW 9 11 5 6 1028.0 1028.1 0.0
02/12:00am 10.8 8.6 7.9 82 1.4 WNW 9 13 5 7 1028.1 1028.2 0.0
 
Date/Time
EST
Temp
°C
App
Temp
°C
Dew
Point
°C
Rel
Hum
%
Delta-T
°C
Wind Press
QNH
hPa
Press
MSL
hPa
Rain since
9am
mm
Dir  Spd
km/h
Gust
km/h
Spd
kts
Gust
kts
01/11:30pm 10.8 8.9 7.5 80 1.6 NW 7 11 4 6 1028.1 1028.2 0.0
01/11:00pm 11.0 8.7 7.5 79 1.7 WNW 9 11 5 6 1028.0 1028.1 0.0
01/10:30pm 11.3 9.4 7.6 78 1.8 WNW 7 11 4 6 1028.0 1028.1 0.0
01/10:00pm 11.2 8.9 7.5 78 1.8 WNW 9 13 5 7 1028.0 1028.1 0.0
01/09:30pm 11.4 9.6 7.3 76 2.0 W 6 9 3 5 1027.8 1027.9 0.0
01/09:00pm 11.5 9.1 7.2 75 2.1 NW 9 15 5 8 1027.6 1027.7 0.0
01/08:30pm 11.4 9.2 7.7 78 1.8 WNW 9 11 5 6 1027.3 1027.4 0.0
01/08:00pm 11.3 9.5 7.8 79 1.7 WNW 7 9 4 5 1027.0 1027.1 0.0
01/07:30pm 11.2 9.6 8.1 81 1.5 NW 6 7 3 4 1026.8 1026.9 0.0
01/07:00pm 11.4 9.8 7.9 79 1.7 WNW 6 7 3 4 1026.8 1026.9 0.0
01/06:30pm 11.6 9.9 7.7 77 1.9 WNW 6 9 3 5 1026.4 1026.5 0.0
01/06:00pm 11.9 10.2 7.6 75 2.1 NW 6 7 3 4 1026.1 1026.2 0.0
01/05:30pm 12.3 10.6 7.4 72 2.4 WSW 6 7 3 4 1025.8 1025.9 0.0
01/05:00pm 12.7 10.7 7.2 69 2.7 SW 7 11 4 6 1025.6 1025.7 0.0
01/04:30pm 12.8 10.0 6.8 67 2.9 WSW 11 17 6 9 1025.4 1025.5 0.0
01/04:00pm 13.0 9.8 6.8 66 3.0 WSW 13 19 7 10 1025.0 1025.1 0.0
01/03:30pm 12.9 9.7 6.9 67 2.9 WSW 13 22 7 12 1025.1 1025.2 0.0
01/03:00pm 13.1 9.8 6.5 64 3.1 SW 13 24 7 13 1025.1 1025.2 0.0
01/02:30pm 13.0 9.0 6.8 66 3.0 WSW 17 26 9 14 1025.0 1025.1 0.0
01/02:00pm 13.1 9.8 6.2 63 3.3 SW 13 19 7 10 1025.0 1025.1 0.0
01/01:30pm 12.9 10.0 6.3 64 3.1 SW 11 17 6 9 1025.1 1025.2 0.0
01/01:00pm 12.8 9.5 6.6 66 3.0 SSW 13 19 7 10 1025.4 1025.5 0.0
01/12:30pm 12.5 9.7 7.0 69 2.7 SW 11 19 6 10 1025.7 1025.8 0.0
01/12:00pm 11.9 8.7 7.0 72 2.3 WSW 13 19 7 10 1025.9 1026.0 0.0
01/11:30am 11.9 8.8 7.2 73 2.3 WSW 13 20 7 11 1026.2 1026.3 0.0
01/11:00am 11.0 7.8 6.7 75 2.0 WSW 13 19 7 10 1026.2 1026.3 0.0
01/10:30am 10.3 7.0 6.6 78 1.7 WSW 13 19 7 10 1025.9 1026.0 0.0
01/10:00am 8.8 5.1 6.1 83 1.2 WSW 15 20 8 11 1025.6 1025.7 0.0
01/09:30am 7.5 4.1 6.0 90 0.7 W 13 19 7 10 1025.0 1025.1 0.0
01/09:00am 5.9 2.3 4.9 93 0.4 W 13 19 7 10 1024.7 1024.8 3.2
01/08:30am 4.4 0.6 3.8 96 0.3 W 13 17 7 9 1024.3 1024.4 3.2
01/08:00am 3.8 0.3 3.4 97 0.2 W 11 17 6 9 1023.9 1023.9 3.2
01/07:30am 3.6 0.0 3.2 97 0.2 W 11 13 6 7 1023.2 1023.2 3.2
01/07:00am 3.6 0.0 3.0 96 0.2 W 11 15 6 8 1022.8 1022.8 3.2
01/06:30am 3.9 0.4 3.5 97 0.2 W 11 15 6 8 1022.4 1022.4 3.2
01/06:00am 3.7 0.1 3.1 96 0.2 W 11 17 6 9 1022.0 1022.0 3.2
01/05:30am 3.8 0.6 3.2 96 0.2 W 9 13 5 7 1021.7 1021.7 3.2
01/05:00am 4.1 0.9 3.2 94 0.4 W 9 13 5 7 1021.3 1021.3 3.2
01/04:30am 4.8 1.3 3.6 92 0.5 W 11 17 6 9 1020.9 1020.9 3.2
01/04:00am 5.6 1.9 4.2 91 0.6 W 13 20 7 11 1020.7 1020.7 3.2
01/03:30am 5.5 1.4 4.3 92 0.5 W 15 22 8 12 1020.6 1020.6 3.2
01/03:00am 5.5 1.8 4.2 91 0.6 W 13 19 7 10 1020.2 1020.2 3.2
01/02:30am 5.6 1.5 4.1 90 0.6 W 15 20 8 11 1020.0 1020.0 3.2
01/02:00am 5.9 1.8 4.4 90 0.6 W 15 22 8 12 1019.7 1019.7 3.2
01/01:30am 5.9 1.8 4.2 89 0.7 W 15 22 8 12 1019.6 1019.6 3.2
01/01:00am 6.3 2.2 4.3 87 0.9 W 15 22 8 12 1019.4 1019.4 3.2
01/12:30am 6.2 2.1 4.4 88 0.8 W 15 22 8 12 1019.3 1019.3 3.2
01/12:00am 6.1 2.0 4.4 89 0.7 W 15 20 8 11 1019.1 1019.1 3.2
 
Date/Time
EST
Temp
°C
App
Temp
°C
Dew
Point
°C
Rel
Hum
%
Delta-T
°C
Wind Press
QNH
hPa
Press
MSL
hPa
Rain since
9am
mm
Dir  Spd
km/h
Gust
km/h
Spd
kts
Gust
kts
30/11:30pm 6.6 3.0 4.8 88 0.8 W 13 22 7 12 1018.9 1018.9 3.2
30/11:00pm 6.7 3.1 5.0 89 0.7 W 13 19 7 10 1018.9 1018.9 3.2
30/10:30pm 6.8 3.2 4.8 87 0.9 W 13 19 7 10 1018.6 1018.6 3.2
30/10:00pm 6.6 3.4 4.9 89 0.7 W 11 17 6 9 1018.5 1018.5 3.2
30/09:30pm 7.4 4.2 5.2 86 1.0 W 11 17 6 9 1018.3 1018.3 3.2
30/09:00pm 7.3 3.8 5.3 87 0.9 WSW 13 19 7 10 1017.9 1017.9 3.2
30/08:30pm 7.3 4.3 6.1 92 0.5 WSW 11 15 6 8 1017.7 1017.7 3.2
30/08:00pm 8.3 5.7 6.1 86 1.0 WSW 9 13 5 7 1017.2 1017.3 3.2
30/07:30pm 9.2 6.8 6.8 85 1.1 WSW 9 15 5 8 1016.7 1016.8 3.2
30/07:00pm 9.5 6.5 7.6 88 0.9 WSW 13 20 7 11 1016.2 1016.3 3.2
30/06:30pm 9.8 6.8 7.9 88 0.9 WSW 13 19 7 10 1015.5 1015.6 3.2
30/06:00pm 10.4 7.5 8.3 87 1.0 W 13 19 7 10 1014.8 1014.9 3.2
30/05:30pm 10.8 7.8 9.1 89 0.8 W 15 28 8 15 1014.1 1014.2 3.2
30/05:00pm 10.7 7.5 9.8 94 0.5 WSW 17 30 9 16 1013.8 1013.9 3.0
30/04:57pm 10.6 7.0 9.7 94 0.5 WSW 19 35 10 19 1013.7 1013.8 3.0
30/04:30pm 10.7 5.6 9.3 91 0.7 SW 26 39 14 21 1013.4 1013.5 1.2
30/04:25pm 11.0 5.4 8.9 87 1.0 SW 28 43 15 23 1013.4 1013.5 1.0
30/04:00pm 13.8 10.3 10.8 82 1.6 W 20 30 11 16 1012.3 1012.4 0.2
30/03:30pm 13.0 8.6 10.4 84 1.4 W 24 35 13 19 1012.1 1012.2 0.2
30/03:03pm 13.1 7.8 9.9 81 1.6 WSW 28 46 15 25 1011.8 1011.9 0.0
30/03:00pm 13.2 7.8 9.5 78 1.9 WSW 28 46 15 25 1011.8 1011.9 0.0
30/02:30pm 17.1 11.4 6.6 50 5.2 W 26 39 14 21 1011.4 1011.5 0.0
30/02:00pm 16.6 10.1 6.4 51 5.0 WNW 30 43 16 23 1011.7 1011.8 0.0
30/01:30pm 16.6 10.1 6.4 51 5.0 WNW 30 46 16 25 1012.1 1012.2 0.0
30/01:00pm 17.0 10.9 6.8 51 5.1 WNW 28 46 15 25 1012.4 1012.5 0.0
30/12:45pm 16.3 10.1 6.2 51 4.9 WNW 28 46 15 25 1012.7 1012.8 0.0
30/12:30pm 16.4 10.7 6.8 53 4.7 WNW 26 41 14 22 1013.1 1013.2 0.0
30/12:00pm 15.4 10.3 6.2 54 4.5 NW 22 32 12 17 1013.6 1013.7 0.0
30/11:30am 14.3 8.8 5.7 56 4.1 NW 24 37 13 20 1014.3 1014.4 0.0
30/11:00am 13.3 8.1 5.7 60 3.6 NW 22 35 12 19 1014.7 1014.8 0.0
30/10:30am 12.2 6.6 5.4 63 3.2 NNW 24 33 13 18 1014.8 1014.9 0.0
30/10:00am 11.2 6.3 4.9 65 2.9 NNW 20 33 11 18 1014.9 1015.0 0.0
30/09:30am 9.8 5.1 5.0 72 2.2 NNW 19 28 10 15 1014.9 1015.0 0.0
30/09:00am 8.6 3.3 5.0 78 1.6 NNW 22 32 12 17 1014.9 1015.0 0.0
30/08:30am 8.3 3.6 5.1 80 1.4 NNW 19 26 10 14 1015.0 1015.1 0.0
30/08:00am 7.7 2.8 5.2 84 1.1 N 20 28 11 15 1015.0 1015.1 0.0
30/07:30am 8.0 3.1 4.2 77 1.7 N 19 24 10 13 1015.2 1015.3 0.0
30/07:00am 7.8 2.9 4.2 78 1.6 N 19 28 10 15 1015.2 1015.3 0.0
30/06:30am 7.8 2.9 4.2 78 1.6 N 19 26 10 14 1015.1 1015.2 0.0
30/06:00am 7.5 3.0 4.3 80 1.4 N 17 24 9 13 1015.4 1015.5 0.0
30/05:30am 7.8 2.7 4.2 78 1.6 N 20 30 11 16 1015.7 1015.8 0.0
30/05:00am 7.5 2.6 4.1 79 1.5 N 19 24 10 13 1016.1 1016.2 0.0
30/04:30am 7.4 2.5 4.2 80 1.4 N 19 24 10 13 1016.6 1016.7 0.0
30/04:00am 6.7 2.2 4.0 83 1.2 N 17 22 9 12 1016.8 1016.9 0.0
30/03:30am 6.5 2.0 4.0 84 1.1 N 17 22 9 12 1017.0 1017.1 0.0
30/03:00am 6.7 1.8 4.2 84 1.1 N 19 24 10 13 1017.3 1017.4 0.0
30/02:30am 7.0 1.9 4.3 83 1.2 N 20 24 11 13 1017.5 1017.6 0.0
30/02:00am 7.0 2.2 4.5 84 1.1 N 19 22 10 12 1017.9 1017.9 0.0
30/01:30am 7.0 2.9 4.3 83 1.2 N 15 19 8 10 1018.2 1018.2 0.0
30/01:00am 7.9 3.5 4.7 80 1.4 N 17 20 9 11 1018.6 1018.6 0.0
30/12:30am 9.0 4.6 4.6 74 2.0 N 17 20 9 11 1019.1 1019.1 0.0
30/12:00am 9.5 4.7 4.9 73 2.1 N 19 22 10 12 1019.5 1019.5 0.0
 
Date/Time
EST
Temp
°C
App
Temp
°C
Dew
Point
°C
Rel
Hum
%
Delta-T
°C
Wind Press
QNH
hPa
Press
MSL
hPa
Rain since
9am
mm
Dir  Spd
km/h
Gust
km/h
Spd
kts
Gust
kts
29/11:30pm 9.9 5.0 4.9 71 2.3 N 20 24 11 13 1019.6 1019.6 0.0
29/11:00pm 10.4 6.0 4.8 68 2.5 N 17 24 9 13 1020.0 1020.0 0.0
29/10:30pm 10.7 5.7 4.8 67 2.7 N 20 28 11 15 1020.1 1020.1 0.0
29/10:00pm 10.7 5.8 5.0 68 2.6 NNE 20 30 11 16 1020.5 1020.5 0.0
29/09:30pm 11.2 5.9 5.1 66 2.8 N 22 28 12 15 1020.6 1020.6 0.0
29/09:00pm 10.9 7.0 5.2 68 2.6 NNE 15 20 8 11 1020.8 1020.8 0.0
29/08:30pm 10.6 6.7 5.2 69 2.5 NNE 15 19 8 10 1020.9 1020.9 0.0
29/08:00pm 10.8 6.0 4.9 67 2.7 NNE 19 22 10 12 1020.9 1020.9 0.0
29/07:30pm 10.8 6.5 5.1 68 2.6 NNE 17 20 9 11 1021.1 1021.1 0.0
29/07:00pm 10.9 7.1 5.7 70 2.4 NNE 15 19 8 10 1021.4 1021.4 0.0
29/06:30pm 10.5 7.1 5.7 72 2.2 NNE 13 15 7 8 1021.5 1021.5 0.0
29/06:00pm 12.0 7.8 5.6 65 3.0 NNE 17 19 9 10 1021.4 1021.4 0.0
29/05:30pm 13.0 8.7 5.2 59 3.6 N 17 22 9 12 1021.5 1021.5 0.0
29/05:00pm 13.6 8.3 5.0 56 4.0 N 22 30 12 16 1021.7 1021.7 0.0
29/04:30pm 14.5 9.8 5.3 54 4.3 N 19 28 10 15 1021.9 1021.9 0.0
29/04:00pm 15.1 9.5 5.6 53 4.5 NNE 24 30 13 16 1022.2 1022.2 0.0
29/03:30pm 15.6 11.3 5.2 50 4.9 N 17 24 9 13 1022.7 1022.7 0.0
29/03:00pm 15.0 10.3 5.2 52 4.6 N 19 28 10 15 1023.1 1023.1 0.0
29/02:30pm 14.6 9.7 5.1 53 4.5 N 20 30 11 16 1023.6 1023.6 0.0
29/02:00pm 14.5 9.8 5.0 53 4.4 NNW 19 28 10 15 1024.1 1024.2 0.0
29/01:30pm 15.1 9.9 5.6 53 4.5 N 22 32 12 17 1024.7 1024.8 0.0
29/01:00pm 14.5 9.8 5.3 54 4.3 NNW 19 28 10 15 1025.2 1025.3 0.0
29/12:30pm 14.5 9.6 5.3 54 4.3 N 20 30 11 16 1026.0 1026.1 0.0
29/12:00pm 14.0 8.3 5.1 55 4.1 N 24 32 13 17 1026.7 1026.8 0.0
29/11:30am 13.2 7.5 4.9 57 3.8 N 24 37 13 20 1027.4 1027.5 0.0
29/11:00am 12.6 6.4 4.3 57 3.7 N 26 37 14 20 1027.7 1027.8 0.0
29/10:30am 11.5 6.6 4.9 64 3.0 N 20 26 11 14 1028.0 1028.1 0.0

Other Formats:

Comma delimited format used in spreadsheet applications
http://www.bom.gov.au/fwo/IDN60801/IDN60801.94693.axf

JavaScript Object Notation format (JSON) in row-major order
http://www.bom.gov.au/fwo/IDN60801/IDN60801.94693.json